sensor_id;sensor_type;location;lat;lon;timestamp;P1;durP1;ratioP1;P2;durP2;ratioP2
74821;SDS011;63353;48.702;8.884;2022-09-23T00:00:19;7.43;;;6.73;;
74821;SDS011;63353;48.702;8.884;2022-09-23T00:02:45;9.47;;;7.50;;
74821;SDS011;63353;48.702;8.884;2022-09-23T00:05:12;9.00;;;7.13;;
74821;SDS011;63353;48.702;8.884;2022-09-23T00:07:38;9.20;;;7.20;;
74821;SDS011;63353;48.702;8.884;2022-09-23T00:10:04;9.93;;;7.17;;
74821;SDS011;63353;48.702;8.884;2022-09-23T00:12:31;9.73;;;7.47;;
74821;SDS011;63353;48.702;8.884;2022-09-23T00:14:57;10.33;;;8.00;;
74821;SDS011;63353;48.702;8.884;2022-09-23T00:17:22;10.37;;;7.97;;
74821;SDS011;63353;48.702;8.884;2022-09-23T00:19:48;10.03;;;8.07;;
74821;SDS011;63353;48.702;8.884;2022-09-23T00:22:14;11.50;;;8.20;;
74821;SDS011;63353;48.702;8.884;2022-09-23T00:24:40;10.33;;;8.00;;
74821;SDS011;63353;48.702;8.884;2022-09-23T00:27:06;9.57;;;8.33;;
74821;SDS011;63353;48.702;8.884;2022-09-23T00:29:32;10.73;;;8.97;;
74821;SDS011;63353;48.702;8.884;2022-09-23T00:31:57;10.13;;;8.20;;
74821;SDS011;63353;48.702;8.884;2022-09-23T00:34:23;10.30;;;8.33;;
74821;SDS011;63353;48.702;8.884;2022-09-23T00:36:49;11.03;;;8.53;;
74821;SDS011;63353;48.702;8.884;2022-09-23T00:39:14;10.83;;;8.27;;
74821;SDS011;63353;48.702;8.884;2022-09-23T00:41:40;10.53;;;8.83;;
74821;SDS011;63353;48.702;8.884;2022-09-23T00:47:07;12.33;;;8.37;;
74821;SDS011;63353;48.702;8.884;2022-09-23T00:49:48;11.53;;;8.40;;
74821;SDS011;63353;48.702;8.884;2022-09-23T00:52:21;10.33;;;8.47;;
74821;SDS011;63353;48.702;8.884;2022-09-23T00:54:47;9.73;;;8.53;;
74821;SDS011;63353;48.702;8.884;2022-09-23T00:57:19;10.00;;;8.27;;
74821;SDS011;63353;48.702;8.884;2022-09-23T00:59:46;9.77;;;8.43;;
74821;SDS011;63353;48.702;8.884;2022-09-23T01:02:13;9.50;;;8.27;;
74821;SDS011;63353;48.702;8.884;2022-09-23T01:04:40;10.10;;;7.73;;
74821;SDS011;63353;48.702;8.884;2022-09-23T01:07:06;10.87;;;8.37;;
74821;SDS011;63353;48.702;8.884;2022-09-23T01:09:32;9.97;;;7.80;;
74821;SDS011;63353;48.702;8.884;2022-09-23T01:12:12;9.93;;;8.33;;
74821;SDS011;63353;48.702;8.884;2022-09-23T01:14:55;10.60;;;8.53;;
74821;SDS011;63353;48.702;8.884;2022-09-23T01:17:39;11.77;;;9.13;;
74821;SDS011;63353;48.702;8.884;2022-09-23T01:37:12;11.67;;;8.97;;
74821;SDS011;63353;48.702;8.884;2022-09-23T01:39:50;11.13;;;9.00;;
74821;SDS011;63353;48.702;8.884;2022-09-23T01:42:57;10.63;;;8.40;;
74821;SDS011;63353;48.702;8.884;2022-09-23T01:48:14;11.43;;;9.10;;
74821;SDS011;63353;48.702;8.884;2022-09-23T01:50:48;11.13;;;8.93;;
74821;SDS011;63353;48.702;8.884;2022-09-23T02:01:08;11.27;;;9.27;;
74821;SDS011;63353;48.702;8.884;2022-09-23T02:03:41;10.03;;;8.47;;
74821;SDS011;63353;48.702;8.884;2022-09-23T02:06:24;12.50;;;8.37;;
74821;SDS011;63353;48.702;8.884;2022-09-23T02:11:22;11.70;;;8.40;;
74821;SDS011;63353;48.702;8.884;2022-09-23T02:13:52;10.87;;;8.30;;
74821;SDS011;63353;48.702;8.884;2022-09-23T02:16:45;12.63;;;9.10;;
74821;SDS011;63353;48.702;8.884;2022-09-23T02:19:17;10.57;;;8.70;;
74821;SDS011;63353;48.702;8.884;2022-09-23T02:21:52;11.00;;;8.90;;
74821;SDS011;63353;48.702;8.884;2022-09-23T02:24:30;9.40;;;8.37;;
74821;SDS011;63353;48.702;8.884;2022-09-23T02:29:46;9.97;;;7.90;;
74821;SDS011;63353;48.702;8.884;2022-09-23T02:46:01;11.17;;;8.83;;
74821;SDS011;63353;48.702;8.884;2022-09-23T02:48:42;13.60;;;9.97;;
74821;SDS011;63353;48.702;8.884;2022-09-23T02:51:09;13.00;;;9.63;;
74821;SDS011;63353;48.702;8.884;2022-09-23T02:53:36;11.27;;;9.13;;
74821;SDS011;63353;48.702;8.884;2022-09-23T02:56:16;13.50;;;9.23;;
74821;SDS011;63353;48.702;8.884;2022-09-23T02:58:44;12.10;;;8.73;;
74821;SDS011;63353;48.702;8.884;2022-09-23T03:01:15;12.90;;;9.77;;
74821;SDS011;63353;48.702;8.884;2022-09-23T03:03:47;13.33;;;9.63;;
74821;SDS011;63353;48.702;8.884;2022-09-23T03:06:17;12.93;;;9.73;;
74821;SDS011;63353;48.702;8.884;2022-09-23T03:09:01;13.60;;;10.33;;
74821;SDS011;63353;48.702;8.884;2022-09-23T03:11:45;12.43;;;9.33;;
74821;SDS011;63353;48.702;8.884;2022-09-23T03:14:28;11.67;;;8.90;;
74821;SDS011;63353;48.702;8.884;2022-09-23T03:22:04;11.80;;;9.37;;
74821;SDS011;63353;48.702;8.884;2022-09-23T03:24:45;11.47;;;9.37;;
74821;SDS011;63353;48.702;8.884;2022-09-23T03:27:13;12.07;;;9.07;;
74821;SDS011;63353;48.702;8.884;2022-09-23T03:29:46;11.37;;;8.93;;
74821;SDS011;63353;48.702;8.884;2022-09-23T03:32:15;10.23;;;8.50;;
74821;SDS011;63353;48.702;8.884;2022-09-23T03:34:43;12.93;;;9.37;;
74821;SDS011;63353;48.702;8.884;2022-09-23T03:37:16;12.43;;;9.17;;
74821;SDS011;63353;48.702;8.884;2022-09-23T03:42:44;14.17;;;10.43;;
74821;SDS011;63353;48.702;8.884;2022-09-23T03:45:15;16.33;;;10.50;;
74821;SDS011;63353;48.702;8.884;2022-09-23T03:47:43;12.73;;;9.30;;
74821;SDS011;63353;48.702;8.884;2022-09-23T03:50:10;11.10;;;9.03;;
74821;SDS011;63353;48.702;8.884;2022-09-23T03:52:41;14.57;;;9.60;;
74821;SDS011;63353;48.702;8.884;2022-09-23T03:55:07;12.90;;;9.67;;
74821;SDS011;63353;48.702;8.884;2022-09-23T03:57:34;11.57;;;8.67;;
74821;SDS011;63353;48.702;8.884;2022-09-23T04:00:00;10.73;;;8.70;;
74821;SDS011;63353;48.702;8.884;2022-09-23T04:02:27;12.33;;;8.80;;
74821;SDS011;63353;48.702;8.884;2022-09-23T04:04:53;11.40;;;9.27;;
74821;SDS011;63353;48.702;8.884;2022-09-23T04:07:20;13.30;;;9.73;;
74821;SDS011;63353;48.702;8.884;2022-09-23T04:09:45;11.83;;;9.13;;
74821;SDS011;63353;48.702;8.884;2022-09-23T04:12:11;13.40;;;10.20;;
74821;SDS011;63353;48.702;8.884;2022-09-23T04:14:39;14.20;;;9.70;;
74821;SDS011;63353;48.702;8.884;2022-09-23T04:17:05;14.87;;;10.33;;
74821;SDS011;63353;48.702;8.884;2022-09-23T04:19:30;14.80;;;10.73;;
74821;SDS011;63353;48.702;8.884;2022-09-23T04:21:56;14.20;;;10.57;;
74821;SDS011;63353;48.702;8.884;2022-09-23T04:24:22;13.40;;;9.93;;
74821;SDS011;63353;48.702;8.884;2022-09-23T04:26:51;13.80;;;9.20;;
74821;SDS011;63353;48.702;8.884;2022-09-23T04:29:17;12.07;;;9.20;;
74821;SDS011;63353;48.702;8.884;2022-09-23T04:31:44;13.20;;;9.73;;
74821;SDS011;63353;48.702;8.884;2022-09-23T04:34:11;13.10;;;9.83;;
74821;SDS011;63353;48.702;8.884;2022-09-23T04:36:36;13.50;;;10.37;;
74821;SDS011;63353;48.702;8.884;2022-09-23T04:39:02;12.33;;;9.37;;
74821;SDS011;63353;48.702;8.884;2022-09-23T04:41:29;11.83;;;9.43;;
74821;SDS011;63353;48.702;8.884;2022-09-23T04:43:55;11.70;;;9.23;;
74821;SDS011;63353;48.702;8.884;2022-09-23T04:46:21;11.23;;;8.33;;
74821;SDS011;63353;48.702;8.884;2022-09-23T04:48:47;11.03;;;8.83;;
74821;SDS011;63353;48.702;8.884;2022-09-23T04:51:14;10.93;;;8.30;;
74821;SDS011;63353;48.702;8.884;2022-09-23T04:53:42;12.47;;;9.07;;
74821;SDS011;63353;48.702;8.884;2022-09-23T04:56:10;12.40;;;9.20;;
74821;SDS011;63353;48.702;8.884;2022-09-23T04:58:36;12.93;;;9.37;;
74821;SDS011;63353;48.702;8.884;2022-09-23T05:01:08;12.50;;;9.67;;
74821;SDS011;63353;48.702;8.884;2022-09-23T05:03:39;17.03;;;11.70;;
74821;SDS011;63353;48.702;8.884;2022-09-23T05:06:06;15.30;;;10.20;;
74821;SDS011;63353;48.702;8.884;2022-09-23T05:08:33;13.50;;;9.53;;
74821;SDS011;63353;48.702;8.884;2022-09-23T05:11:00;12.83;;;9.63;;
74821;SDS011;63353;48.702;8.884;2022-09-23T05:13:30;12.13;;;8.83;;
74821;SDS011;63353;48.702;8.884;2022-09-23T05:16:01;15.00;;;10.27;;
74821;SDS011;63353;48.702;8.884;2022-09-23T05:18:35;12.27;;;9.40;;
74821;SDS011;63353;48.702;8.884;2022-09-23T05:21:06;14.10;;;10.07;;
74821;SDS011;63353;48.702;8.884;2022-09-23T05:23:39;12.10;;;9.37;;
74821;SDS011;63353;48.702;8.884;2022-09-23T05:26:07;13.17;;;9.57;;
74821;SDS011;63353;48.702;8.884;2022-09-23T05:28:36;13.63;;;9.80;;
74821;SDS011;63353;48.702;8.884;2022-09-23T05:31:04;13.03;;;9.87;;
74821;SDS011;63353;48.702;8.884;2022-09-23T05:33:32;15.00;;;9.90;;
74821;SDS011;63353;48.702;8.884;2022-09-23T05:35:58;15.53;;;10.53;;
74821;SDS011;63353;48.702;8.884;2022-09-23T05:38:25;14.80;;;11.17;;
74821;SDS011;63353;48.702;8.884;2022-09-23T05:40:58;13.40;;;10.53;;
74821;SDS011;63353;48.702;8.884;2022-09-23T05:43:29;13.47;;;10.23;;
74821;SDS011;63353;48.702;8.884;2022-09-23T05:46:11;13.37;;;9.97;;
74821;SDS011;63353;48.702;8.884;2022-09-23T05:48:38;14.17;;;10.60;;
74821;SDS011;63353;48.702;8.884;2022-09-23T05:51:06;14.60;;;10.83;;
74821;SDS011;63353;48.702;8.884;2022-09-23T05:53:33;14.97;;;11.23;;
74821;SDS011;63353;48.702;8.884;2022-09-23T05:55:58;16.00;;;10.97;;
74821;SDS011;63353;48.702;8.884;2022-09-23T05:58:25;15.50;;;10.87;;
74821;SDS011;63353;48.702;8.884;2022-09-23T06:00:51;12.87;;;10.30;;
74821;SDS011;63353;48.702;8.884;2022-09-23T06:03:19;15.17;;;11.53;;
74821;SDS011;63353;48.702;8.884;2022-09-23T06:05:45;12.87;;;10.37;;
74821;SDS011;63353;48.702;8.884;2022-09-23T06:08:12;14.43;;;10.67;;
74821;SDS011;63353;48.702;8.884;2022-09-23T06:10:38;14.40;;;11.60;;
74821;SDS011;63353;48.702;8.884;2022-09-23T06:13:06;14.10;;;10.60;;
74821;SDS011;63353;48.702;8.884;2022-09-23T06:15:32;13.80;;;10.40;;
74821;SDS011;63353;48.702;8.884;2022-09-23T06:17:58;14.87;;;11.23;;
74821;SDS011;63353;48.702;8.884;2022-09-23T06:20:24;14.37;;;10.30;;
74821;SDS011;63353;48.702;8.884;2022-09-23T06:22:50;14.60;;;11.13;;
74821;SDS011;63353;48.702;8.884;2022-09-23T06:25:16;16.57;;;12.40;;
74821;SDS011;63353;48.702;8.884;2022-09-23T06:27:43;17.13;;;12.57;;
74821;SDS011;63353;48.702;8.884;2022-09-23T06:30:19;14.07;;;12.10;;
74821;SDS011;63353;48.702;8.884;2022-09-23T06:32:48;12.83;;;10.73;;
74821;SDS011;63353;48.702;8.884;2022-09-23T06:35:19;12.90;;;10.33;;
74821;SDS011;63353;48.702;8.884;2022-09-23T06:37:46;13.00;;;10.60;;
74821;SDS011;63353;48.702;8.884;2022-09-23T06:40:12;13.57;;;10.63;;
74821;SDS011;63353;48.702;8.884;2022-09-23T06:42:39;16.03;;;10.53;;
74821;SDS011;63353;48.702;8.884;2022-09-23T06:45:05;13.33;;;10.40;;
74821;SDS011;63353;48.702;8.884;2022-09-23T06:47:31;11.20;;;9.80;;
74821;SDS011;63353;48.702;8.884;2022-09-23T06:49:57;13.70;;;11.20;;
74821;SDS011;63353;48.702;8.884;2022-09-23T06:52:23;15.03;;;10.63;;
74821;SDS011;63353;48.702;8.884;2022-09-23T06:54:49;10.47;;;8.93;;
74821;SDS011;63353;48.702;8.884;2022-09-23T06:57:14;10.07;;;8.87;;
74821;SDS011;63353;48.702;8.884;2022-09-23T06:59:40;9.97;;;8.50;;
74821;SDS011;63353;48.702;8.884;2022-09-23T07:02:07;9.33;;;8.43;;
74821;SDS011;63353;48.702;8.884;2022-09-23T07:04:33;9.70;;;8.20;;
74821;SDS011;63353;48.702;8.884;2022-09-23T07:06:59;8.80;;;7.23;;
74821;SDS011;63353;48.702;8.884;2022-09-23T07:09:24;8.40;;;7.60;;
74821;SDS011;63353;48.702;8.884;2022-09-23T07:11:50;6.70;;;6.10;;
74821;SDS011;63353;48.702;8.884;2022-09-23T07:14:16;8.03;;;6.60;;
74821;SDS011;63353;48.702;8.884;2022-09-23T07:16:41;6.53;;;5.93;;
74821;SDS011;63353;48.702;8.884;2022-09-23T07:19:07;6.90;;;6.27;;
74821;SDS011;63353;48.702;8.884;2022-09-23T07:21:32;6.47;;;5.60;;
74821;SDS011;63353;48.702;8.884;2022-09-23T07:23:58;6.27;;;5.50;;
74821;SDS011;63353;48.702;8.884;2022-09-23T07:26:24;6.83;;;5.80;;
74821;SDS011;63353;48.702;8.884;2022-09-23T07:28:53;6.27;;;5.73;;
74821;SDS011;63353;48.702;8.884;2022-09-23T07:31:20;7.07;;;5.77;;
74821;SDS011;63353;48.702;8.884;2022-09-23T07:33:47;6.93;;;6.23;;
74821;SDS011;63353;48.702;8.884;2022-09-23T07:36:14;5.57;;;5.07;;
74821;SDS011;63353;48.702;8.884;2022-09-23T07:38:41;5.90;;;5.30;;
74821;SDS011;63353;48.702;8.884;2022-09-23T07:41:08;6.57;;;5.87;;
74821;SDS011;63353;48.702;8.884;2022-09-23T07:43:35;6.30;;;5.70;;
74821;SDS011;63353;48.702;8.884;2022-09-23T07:46:03;5.83;;;5.23;;
74821;SDS011;63353;48.702;8.884;2022-09-23T07:48:32;7.93;;;5.80;;
74821;SDS011;63353;48.702;8.884;2022-09-23T07:50:59;6.20;;;5.60;;
74821;SDS011;63353;48.702;8.884;2022-09-23T07:53:25;6.30;;;5.70;;
74821;SDS011;63353;48.702;8.884;2022-09-23T07:55:52;6.27;;;5.20;;
74821;SDS011;63353;48.702;8.884;2022-09-23T07:58:19;6.17;;;4.73;;
74821;SDS011;63353;48.702;8.884;2022-09-23T08:00:44;5.97;;;5.47;;
74821;SDS011;63353;48.702;8.884;2022-09-23T08:03:10;6.10;;;5.50;;
74821;SDS011;63353;48.702;8.884;2022-09-23T08:05:36;5.40;;;5.00;;
74821;SDS011;63353;48.702;8.884;2022-09-23T08:08:02;5.80;;;5.13;;
74821;SDS011;63353;48.702;8.884;2022-09-23T08:10:31;5.53;;;4.93;;
74821;SDS011;63353;48.702;8.884;2022-09-23T08:12:58;5.27;;;4.77;;
74821;SDS011;63353;48.702;8.884;2022-09-23T08:15:27;5.93;;;5.43;;
74821;SDS011;63353;48.702;8.884;2022-09-23T08:17:56;5.73;;;5.20;;
74821;SDS011;63353;48.702;8.884;2022-09-23T08:20:24;5.87;;;5.37;;
74821;SDS011;63353;48.702;8.884;2022-09-23T08:23:09;6.60;;;5.40;;
74821;SDS011;63353;48.702;8.884;2022-09-23T08:25:39;5.60;;;5.10;;
74821;SDS011;63353;48.702;8.884;2022-09-23T08:28:05;5.43;;;5.00;;
74821;SDS011;63353;48.702;8.884;2022-09-23T08:30:34;7.10;;;5.53;;
74821;SDS011;63353;48.702;8.884;2022-09-23T08:33:00;5.43;;;4.93;;
74821;SDS011;63353;48.702;8.884;2022-09-23T08:35:27;6.17;;;5.20;;
74821;SDS011;63353;48.702;8.884;2022-09-23T08:37:53;7.00;;;5.20;;
74821;SDS011;63353;48.702;8.884;2022-09-23T08:40:19;5.20;;;4.80;;
74821;SDS011;63353;48.702;8.884;2022-09-23T08:42:44;5.33;;;4.83;;
74821;SDS011;63353;48.702;8.884;2022-09-23T08:45:19;5.97;;;5.37;;
74821;SDS011;63353;48.702;8.884;2022-09-23T08:47:59;5.50;;;5.00;;
74821;SDS011;63353;48.702;8.884;2022-09-23T08:50:43;5.40;;;4.90;;
74821;SDS011;63353;48.702;8.884;2022-09-23T08:53:25;5.10;;;4.70;;
74821;SDS011;63353;48.702;8.884;2022-09-23T08:55:54;5.83;;;5.10;;
74821;SDS011;63353;48.702;8.884;2022-09-23T09:03:58;6.33;;;4.73;;
74821;SDS011;63353;48.702;8.884;2022-09-23T09:08:53;6.00;;;5.17;;
74821;SDS011;63353;48.702;8.884;2022-09-23T09:11:21;5.47;;;4.97;;
74821;SDS011;63353;48.702;8.884;2022-09-23T09:13:58;5.60;;;5.00;;
74821;SDS011;63353;48.702;8.884;2022-09-23T09:22:01;5.37;;;4.97;;
74821;SDS011;63353;48.702;8.884;2022-09-23T09:24:35;6.37;;;5.57;;
74821;SDS011;63353;48.702;8.884;2022-09-23T09:27:09;6.80;;;5.47;;
74821;SDS011;63353;48.702;8.884;2022-09-23T09:29:38;8.20;;;7.40;;
74821;SDS011;63353;48.702;8.884;2022-09-23T09:35:07;10.27;;;9.17;;
74821;SDS011;63353;48.702;8.884;2022-09-23T09:37:43;6.90;;;5.73;;
74821;SDS011;63353;48.702;8.884;2022-09-23T09:40:11;7.03;;;6.20;;
74821;SDS011;63353;48.702;8.884;2022-09-23T09:42:40;7.33;;;5.40;;
74821;SDS011;63353;48.702;8.884;2022-09-23T10:01:18;6.07;;;5.17;;
74821;SDS011;63353;48.702;8.884;2022-09-23T10:03:45;5.23;;;4.83;;
74821;SDS011;63353;48.702;8.884;2022-09-23T10:06:25;5.83;;;5.30;;
74821;SDS011;63353;48.702;8.884;2022-09-23T10:11:43;7.27;;;5.60;;
74821;SDS011;63353;48.702;8.884;2022-09-23T10:14:38;5.90;;;5.23;;
74821;SDS011;63353;48.702;8.884;2022-09-23T10:17:05;6.67;;;5.67;;
74821;SDS011;63353;48.702;8.884;2022-09-23T10:19:33;4.63;;;4.23;;
74821;SDS011;63353;48.702;8.884;2022-09-23T10:22:01;5.37;;;4.87;;
74821;SDS011;63353;48.702;8.884;2022-09-23T10:24:33;5.20;;;4.80;;
74821;SDS011;63353;48.702;8.884;2022-09-23T10:32:17;5.27;;;4.70;;
74821;SDS011;63353;48.702;8.884;2022-09-23T10:34:56;5.33;;;4.70;;
74821;SDS011;63353;48.702;8.884;2022-09-23T10:37:33;5.50;;;5.00;;
74821;SDS011;63353;48.702;8.884;2022-09-23T10:46:45;5.57;;;4.93;;
74821;SDS011;63353;48.702;8.884;2022-09-23T10:52:32;5.17;;;4.77;;
74821;SDS011;63353;48.702;8.884;2022-09-23T10:55:15;6.33;;;5.13;;
74821;SDS011;63353;48.702;8.884;2022-09-23T10:58:34;6.80;;;5.20;;
74821;SDS011;63353;48.702;8.884;2022-09-23T11:14:51;4.73;;;4.33;;
74821;SDS011;63353;48.702;8.884;2022-09-23T11:20:21;5.33;;;4.93;;
74821;SDS011;63353;48.702;8.884;2022-09-23T11:23:09;6.00;;;5.10;;
74821;SDS011;63353;48.702;8.884;2022-09-23T11:34:30;5.30;;;4.80;;
74821;SDS011;63353;48.702;8.884;2022-09-23T11:37:16;5.63;;;5.13;;
74821;SDS011;63353;48.702;8.884;2022-09-23T11:39:56;7.97;;;5.07;;
74821;SDS011;63353;48.702;8.884;2022-09-23T11:42:43;7.63;;;5.07;;
74821;SDS011;63353;48.702;8.884;2022-09-23T11:45:43;5.63;;;5.00;;
74821;SDS011;63353;48.702;8.884;2022-09-23T11:48:16;5.47;;;5.03;;
74821;SDS011;63353;48.702;8.884;2022-09-23T11:50:47;5.30;;;4.90;;
74821;SDS011;63353;48.702;8.884;2022-09-23T11:53:24;5.70;;;5.10;;
74821;SDS011;63353;48.702;8.884;2022-09-23T11:56:26;5.30;;;4.80;;
74821;SDS011;63353;48.702;8.884;2022-09-23T12:04:39;7.13;;;5.23;;
74821;SDS011;63353;48.702;8.884;2022-09-23T12:07:17;5.67;;;5.20;;
74821;SDS011;63353;48.702;8.884;2022-09-23T12:12:25;6.07;;;5.57;;
74821;SDS011;63353;48.702;8.884;2022-09-23T12:20:35;6.30;;;5.63;;
74821;SDS011;63353;48.702;8.884;2022-09-23T12:26:31;7.43;;;5.37;;
74821;SDS011;63353;48.702;8.884;2022-09-23T12:28:59;5.97;;;5.37;;
74821;SDS011;63353;48.702;8.884;2022-09-23T12:31:28;5.93;;;5.17;;
74821;SDS011;63353;48.702;8.884;2022-09-23T12:33:55;7.10;;;5.40;;
74821;SDS011;63353;48.702;8.884;2022-09-23T12:36:30;5.70;;;5.10;;
74821;SDS011;63353;48.702;8.884;2022-09-23T12:39:32;5.83;;;4.93;;
74821;SDS011;63353;48.702;8.884;2022-09-23T12:41:54;5.80;;;5.23;;
74821;SDS011;63353;48.702;8.884;2022-09-23T12:44:44;5.80;;;5.30;;
74821;SDS011;63353;48.702;8.884;2022-09-23T12:49:53;5.53;;;5.07;;
74821;SDS011;63353;48.702;8.884;2022-09-23T12:54:54;6.47;;;5.27;;
74821;SDS011;63353;48.702;8.884;2022-09-23T13:05:44;7.03;;;6.30;;
74821;SDS011;63353;48.702;8.884;2022-09-23T13:08:39;6.73;;;6.00;;
74821;SDS011;63353;48.702;8.884;2022-09-23T13:11:18;6.03;;;5.53;;
74821;SDS011;63353;48.702;8.884;2022-09-23T13:13:47;7.70;;;5.20;;
74821;SDS011;63353;48.702;8.884;2022-09-23T13:18:59;6.60;;;5.90;;
74821;SDS011;63353;48.702;8.884;2022-09-23T13:22:09;6.40;;;5.83;;
74821;SDS011;63353;48.702;8.884;2022-09-23T13:26:51;6.77;;;5.97;;
74821;SDS011;63353;48.702;8.884;2022-09-23T13:29:41;6.60;;;4.97;;
74821;SDS011;63353;48.702;8.884;2022-09-23T13:32:19;6.50;;;5.80;;
74821;SDS011;63353;48.702;8.884;2022-09-23T13:35:13;6.37;;;5.70;;
74821;SDS011;63353;48.702;8.884;2022-09-23T13:37:50;6.23;;;5.63;;
74821;SDS011;63353;48.702;8.884;2022-09-23T13:40:23;7.63;;;5.67;;
74821;SDS011;63353;48.702;8.884;2022-09-23T13:43:01;5.90;;;5.40;;
74821;SDS011;63353;48.702;8.884;2022-09-23T13:45:29;6.27;;;5.77;;
74821;SDS011;63353;48.702;8.884;2022-09-23T13:48:00;7.60;;;6.27;;
74821;SDS011;63353;48.702;8.884;2022-09-23T13:50:31;6.60;;;6.00;;
74821;SDS011;63353;48.702;8.884;2022-09-23T13:53:01;7.07;;;6.03;;
74821;SDS011;63353;48.702;8.884;2022-09-23T13:55:33;7.17;;;5.93;;
74821;SDS011;63353;48.702;8.884;2022-09-23T14:00:36;6.70;;;6.03;;
74821;SDS011;63353;48.702;8.884;2022-09-23T14:03:11;7.40;;;6.70;;
74821;SDS011;63353;48.702;8.884;2022-09-23T14:05:43;6.50;;;6.00;;
74821;SDS011;63353;48.702;8.884;2022-09-23T14:08:10;6.80;;;6.10;;
74821;SDS011;63353;48.702;8.884;2022-09-23T14:10:36;6.97;;;6.27;;
74821;SDS011;63353;48.702;8.884;2022-09-23T14:13:10;6.73;;;6.13;;
74821;SDS011;63353;48.702;8.884;2022-09-23T14:15:38;7.40;;;5.87;;
74821;SDS011;63353;48.702;8.884;2022-09-23T14:18:04;6.47;;;5.83;;
74821;SDS011;63353;48.702;8.884;2022-09-23T14:20:32;7.03;;;6.33;;
74821;SDS011;63353;48.702;8.884;2022-09-23T14:23:11;5.83;;;5.30;;
74821;SDS011;63353;48.702;8.884;2022-09-23T14:25:43;6.47;;;5.97;;
74821;SDS011;63353;48.702;8.884;2022-09-23T14:28:14;7.73;;;6.43;;
74821;SDS011;63353;48.702;8.884;2022-09-23T14:30:41;7.30;;;6.60;;
74821;SDS011;63353;48.702;8.884;2022-09-23T14:33:15;7.10;;;6.43;;
74821;SDS011;63353;48.702;8.884;2022-09-23T14:35:46;7.00;;;6.27;;
74821;SDS011;63353;48.702;8.884;2022-09-23T14:38:22;6.90;;;6.10;;
74821;SDS011;63353;48.702;8.884;2022-09-23T14:41:23;7.33;;;6.23;;
74821;SDS011;63353;48.702;8.884;2022-09-23T14:43:54;7.07;;;6.37;;
74821;SDS011;63353;48.702;8.884;2022-09-23T14:46:23;7.93;;;6.93;;
74821;SDS011;63353;48.702;8.884;2022-09-23T14:48:58;6.43;;;5.83;;
74821;SDS011;63353;48.702;8.884;2022-09-23T14:52:07;6.70;;;6.10;;
74821;SDS011;63353;48.702;8.884;2022-09-23T14:54:43;7.10;;;6.50;;
74821;SDS011;63353;48.702;8.884;2022-09-23T14:57:23;6.67;;;6.07;;
74821;SDS011;63353;48.702;8.884;2022-09-23T15:00:06;8.07;;;6.57;;
74821;SDS011;63353;48.702;8.884;2022-09-23T15:02:42;6.73;;;6.07;;
74821;SDS011;63353;48.702;8.884;2022-09-23T15:05:14;7.20;;;6.27;;
74821;SDS011;63353;48.702;8.884;2022-09-23T15:07:47;11.07;;;6.13;;
74821;SDS011;63353;48.702;8.884;2022-09-23T15:10:25;6.83;;;6.10;;
74821;SDS011;63353;48.702;8.884;2022-09-23T15:13:10;8.10;;;7.23;;
74821;SDS011;63353;48.702;8.884;2022-09-23T15:15:51;9.30;;;6.50;;
74821;SDS011;63353;48.702;8.884;2022-09-23T15:20:54;6.37;;;5.77;;
74821;SDS011;63353;48.702;8.884;2022-09-23T15:26:06;6.97;;;5.87;;
74821;SDS011;63353;48.702;8.884;2022-09-23T15:28:35;6.67;;;5.70;;
74821;SDS011;63353;48.702;8.884;2022-09-23T15:31:01;7.37;;;5.77;;
74821;SDS011;63353;48.702;8.884;2022-09-23T15:33:29;5.93;;;5.43;;
74821;SDS011;63353;48.702;8.884;2022-09-23T15:35:55;6.37;;;5.63;;
74821;SDS011;63353;48.702;8.884;2022-09-23T15:38:22;7.73;;;5.57;;
74821;SDS011;63353;48.702;8.884;2022-09-23T15:40:50;8.83;;;6.10;;
74821;SDS011;63353;48.702;8.884;2022-09-23T15:45:51;9.87;;;5.57;;
74821;SDS011;63353;48.702;8.884;2022-09-23T15:48:25;5.57;;;5.13;;
74821;SDS011;63353;48.702;8.884;2022-09-23T15:50:55;5.87;;;5.37;;
74821;SDS011;63353;48.702;8.884;2022-09-23T15:53:25;5.90;;;5.30;;
74821;SDS011;63353;48.702;8.884;2022-09-23T15:55:52;5.70;;;5.03;;
74821;SDS011;63353;48.702;8.884;2022-09-23T15:58:18;5.90;;;5.40;;
74821;SDS011;63353;48.702;8.884;2022-09-23T16:00:48;6.90;;;5.67;;
74821;SDS011;63353;48.702;8.884;2022-09-23T16:03:18;5.97;;;5.47;;
74821;SDS011;63353;48.702;8.884;2022-09-23T16:05:45;7.40;;;5.70;;
74821;SDS011;63353;48.702;8.884;2022-09-23T16:08:12;5.87;;;5.37;;
74821;SDS011;63353;48.702;8.884;2022-09-23T16:10:39;6.50;;;5.80;;
74821;SDS011;63353;48.702;8.884;2022-09-23T16:13:08;6.30;;;5.40;;
74821;SDS011;63353;48.702;8.884;2022-09-23T16:15:35;6.17;;;5.57;;
74821;SDS011;63353;48.702;8.884;2022-09-23T16:18:03;11.90;;;5.73;;
74821;SDS011;63353;48.702;8.884;2022-09-23T16:20:30;5.80;;;5.30;;
74821;SDS011;63353;48.702;8.884;2022-09-23T16:23:03;6.07;;;5.57;;
74821;SDS011;63353;48.702;8.884;2022-09-23T16:25:31;6.60;;;6.00;;
74821;SDS011;63353;48.702;8.884;2022-09-23T16:28:00;5.97;;;5.43;;
74821;SDS011;63353;48.702;8.884;2022-09-23T16:30:29;6.17;;;5.67;;
74821;SDS011;63353;48.702;8.884;2022-09-23T16:32:56;6.33;;;5.83;;
74821;SDS011;63353;48.702;8.884;2022-09-23T16:35:24;5.93;;;5.40;;
74821;SDS011;63353;48.702;8.884;2022-09-23T16:37:51;7.00;;;5.70;;
74821;SDS011;63353;48.702;8.884;2022-09-23T16:40:18;8.13;;;6.10;;
74821;SDS011;63353;48.702;8.884;2022-09-23T16:42:47;9.43;;;5.57;;
74821;SDS011;63353;48.702;8.884;2022-09-23T16:45:14;7.53;;;6.83;;
74821;SDS011;63353;48.702;8.884;2022-09-23T16:47:45;7.03;;;5.80;;
74821;SDS011;63353;48.702;8.884;2022-09-23T16:50:13;8.00;;;5.77;;
74821;SDS011;63353;48.702;8.884;2022-09-23T16:52:40;7.43;;;5.50;;
74821;SDS011;63353;48.702;8.884;2022-09-23T16:55:07;10.90;;;6.13;;
74821;SDS011;63353;48.702;8.884;2022-09-23T16:57:34;8.30;;;6.67;;
74821;SDS011;63353;48.702;8.884;2022-09-23T17:00:05;7.90;;;6.70;;
74821;SDS011;63353;48.702;8.884;2022-09-23T17:02:52;8.70;;;6.90;;
74821;SDS011;63353;48.702;8.884;2022-09-23T17:05:36;6.70;;;6.03;;
74821;SDS011;63353;48.702;8.884;2022-09-23T17:08:02;6.93;;;6.33;;
74821;SDS011;63353;48.702;8.884;2022-09-23T17:10:28;7.40;;;6.70;;
74821;SDS011;63353;48.702;8.884;2022-09-23T17:12:54;9.00;;;8.10;;
74821;SDS011;63353;48.702;8.884;2022-09-23T17:15:20;10.07;;;8.77;;
74821;SDS011;63353;48.702;8.884;2022-09-23T17:17:46;8.30;;;7.17;;
74821;SDS011;63353;48.702;8.884;2022-09-23T17:20:12;17.37;;;8.67;;
74821;SDS011;63353;48.702;8.884;2022-09-23T17:22:38;9.80;;;7.40;;
74821;SDS011;63353;48.702;8.884;2022-09-23T17:25:05;11.93;;;8.13;;
74821;SDS011;63353;48.702;8.884;2022-09-23T17:27:32;10.57;;;7.20;;
74821;SDS011;63353;48.702;8.884;2022-09-23T17:29:58;8.17;;;5.97;;
74821;SDS011;63353;48.702;8.884;2022-09-23T17:32:24;11.57;;;5.87;;
74821;SDS011;63353;48.702;8.884;2022-09-23T17:34:50;15.60;;;12.77;;
74821;SDS011;63353;48.702;8.884;2022-09-23T17:37:16;24.43;;;16.87;;
74821;SDS011;63353;48.702;8.884;2022-09-23T17:39:42;12.63;;;9.83;;
74821;SDS011;63353;48.702;8.884;2022-09-23T17:42:08;8.57;;;7.07;;
74821;SDS011;63353;48.702;8.884;2022-09-23T17:44:34;26.07;;;18.80;;
74821;SDS011;63353;48.702;8.884;2022-09-23T17:47:00;16.23;;;13.10;;
74821;SDS011;63353;48.702;8.884;2022-09-23T17:49:27;20.37;;;17.00;;
74821;SDS011;63353;48.702;8.884;2022-09-23T17:52:02;43.77;;;29.57;;
74821;SDS011;63353;48.702;8.884;2022-09-23T17:54:30;38.17;;;27.80;;
74821;SDS011;63353;48.702;8.884;2022-09-23T17:56:56;8.90;;;7.97;;
74821;SDS011;63353;48.702;8.884;2022-09-23T17:59:23;10.17;;;7.33;;
74821;SDS011;63353;48.702;8.884;2022-09-23T18:01:49;7.97;;;7.10;;